Time;durP1;ratioP1;P1;durP2;ratioP2;P2;SDS_P1;SDS_P2;PMS_P1;PMS_P2;Temp;Humidity;BMP_temperature;BMP_pressure;BME280_temperature;BME280_humidity;BME280_pressure;Samples;Min_cycle;Max_cycle;Signal;HPM_P1;HPM_P2
2023/09/05 00:01:03;;;;;;;9.55;5.15;;;;;;;17.74;59.54;101046.94;1641875;87;21365;-55
2023/09/05 00:04:04;;;;;;;8.85;5.40;;;;;;;17.71;59.63;101050.96;1668973;86;21371;-54
2023/09/05 00:07:10;;;;;;;8.50;5.22;;;;;;;17.71;59.69;101037.66;1664295;85;21396;-54
2023/09/05 00:10:18;;;;;;;6.92;5.00;;;;;;;17.69;59.80;101039.26;1700978;84;21857;-55
2023/09/05 00:13:24;;;;;;;9.20;5.62;;;;;;;17.68;59.91;101036.66;1700776;83;21212;-54
2023/09/05 00:16:30;;;;;;;7.67;4.87;;;;;;;17.66;60.00;101036.03;1700753;84;21192;-54
2023/09/05 00:19:37;;;;;;;8.65;5.40;;;;;;;17.65;60.11;101035.69;1700538;83;21224;-55
2023/09/05 00:22:43;;;;;;;9.48;4.97;;;;;;;17.64;60.18;101035.38;1700490;84;21204;-54
2023/09/05 00:25:49;;;;;;;7.65;5.15;;;;;;;17.61;60.25;101030.25;1700489;84;21323;-54
2023/09/05 00:28:56;;;;;;;7.75;5.40;;;;;;;17.57;60.33;101038.63;1700639;84;21232;-55
2023/09/05 00:32:04;;;;;;;8.23;5.55;;;;;;;17.54;60.45;101041.30;1700546;84;21221;-54
2023/09/05 00:35:11;;;;;;;7.45;4.95;;;;;;;17.52;60.59;101038.42;1700611;84;21217;-54
2023/09/05 00:38:17;;;;;;;9.03;5.62;;;;;;;17.51;60.70;101039.45;1700518;84;21216;-55
2023/09/05 00:41:22;;;;;;;11.80;5.40;;;;;;;17.49;60.81;101036.89;1700558;84;21431;-54
2023/09/05 00:44:32;;;;;;;6.65;5.15;;;;;;;17.48;60.89;101039.88;1700763;83;21551;-54
2023/09/05 00:47:39;;;;;;;10.38;5.42;;;;;;;17.43;60.96;101036.30;1700692;84;21702;-55
2023/09/05 00:50:46;;;;;;;7.87;5.05;;;;;;;17.39;61.03;101043.32;1700660;84;21220;-55
2023/09/05 00:53:53;;;;;;;7.72;5.45;;;;;;;17.37;61.15;101043.18;1700621;84;21216;-54
2023/09/05 00:57:00;;;;;;;8.25;6.00;;;;;;;17.35;61.26;101040.62;1700594;83;21220;-54
2023/09/05 01:00:08;;;;;;;10.43;5.35;;;;;;;17.32;61.37;101041.55;1715559;80;21801;-54
2023/09/05 01:03:14;;;;;;;8.03;5.47;;;;;;;17.30;61.51;101044.52;1756735;81;21368;-55
2023/09/05 01:06:27;;;;;;;9.90;5.90;;;;;;;17.28;61.63;101045.80;1733233;82;21383;-55
2023/09/05 01:09:51;;;;;;;7.37;4.83;;;;;;;17.27;61.75;101050.47;1730199;82;21359;-54
2023/09/05 01:12:58;;;;;;;9.40;6.08;;;;;;;17.26;61.86;101046.00;1733507;82;21198;-55
2023/09/05 01:16:03;;;;;;;6.95;5.25;;;;;;;17.24;61.97;101051.39;1728825;82;21707;-55
2023/09/05 01:19:12;;;;;;;10.28;6.15;;;;;;;17.23;62.11;101042.25;1734627;82;21853;-55
2023/09/05 01:22:28;;;;;;;7.58;5.40;;;;;;;17.23;62.22;101049.70;1730619;82;21343;-55
2023/09/05 01:25:34;;;;;;;9.40;6.00;;;;;;;17.22;62.28;101052.15;1733478;82;21460;-54
2023/09/05 01:28:41;;;;;;;10.23;6.45;;;;;;;17.23;62.41;101060.77;1734456;82;21361;-55
2023/09/05 01:31:47;;;;;;;11.50;5.87;;;;;;;17.22;62.49;101061.83;1733822;82;21363;-54
2023/09/05 01:34:53;;;;;;;7.00;5.37;;;;;;;17.21;62.61;101058.72;1744473;81;21383;-56
2023/09/05 01:37:59;;;;;;;9.90;5.75;;;;;;;17.18;62.69;101061.89;1748670;81;21364;-54
2023/09/05 01:41:07;;;;;;;10.82;6.60;;;;;;;17.16;62.80;101066.25;1742889;81;21214;-54
2023/09/05 01:44:13;;;;;;;9.35;6.20;;;;;;;17.13;62.89;101060.25;1748415;81;21430;-54
2023/09/05 01:47:20;;;;;;;7.92;6.35;;;;;;;17.12;63.02;101062.70;1751050;81;21781;-54
2023/09/05 01:50:26;;;;;;;10.13;6.25;;;;;;;17.10;63.16;101070.34;1735829;82;21367;-54
2023/09/05 01:53:32;;;;;;;8.15;5.53;;;;;;;17.09;63.26;101067.27;1731240;81;21404;-54
2023/09/05 01:56:37;;;;;;;15.25;6.45;;;;;;;17.06;63.38;101068.50;1752692;81;21441;-53
2023/09/05 01:59:44;;;;;;;9.33;5.60;;;;;;;17.06;63.49;101075.97;1728800;82;21414;-54
2023/09/05 02:02:51;;;;;;;8.28;5.92;;;;;;;17.05;63.59;101075.11;1729486;80;21404;-55
2023/09/05 02:05:57;;;;;;;8.58;6.60;;;;;;;17.06;63.71;101073.20;1726855;82;21427;-54
2023/09/05 02:09:03;;;;;;;8.45;5.75;;;;;;;17.04;63.81;101064.23;1728270;82;21356;-55
2023/09/05 02:12:09;;;;;;;8.53;6.10;;;;;;;17.05;63.93;101070.09;1726627;82;21972;-53
2023/09/05 02:15:17;;;;;;;8.65;6.72;;;;;;;17.04;63.99;101080.84;1728991;82;21964;-54
2023/09/05 02:18:23;;;;;;;13.18;7.65;;;;;;;17.03;64.11;101079.14;1727380;82;21368;-54
2023/09/05 02:21:28;;;;;;;11.35;6.97;;;;;;;17.01;64.13;101075.70;1727876;82;21348;-54
2023/09/05 02:24:33;;;;;;;10.50;6.20;;;;;;;16.97;64.23;101071.62;1728476;82;21365;-54
2023/09/05 02:27:39;;;;;;;10.60;6.45;;;;;;;16.96;64.40;101069.92;1727285;82;21355;-54
2023/09/05 02:30:45;;;;;;;9.23;6.83;;;;;;;16.95;64.46;101077.34;1727420;82;21865;-53
2023/09/05 02:33:50;;;;;;;10.23;6.45;;;;;;;16.94;64.54;101071.50;1727898;82;21364;-55
2023/09/05 02:36:59;;;;;;;8.63;5.83;;;;;;;16.92;64.64;101071.39;1727367;82;21383;-53
2023/09/05 02:40:03;;;;;;;10.15;5.92;;;;;;;16.91;64.78;101075.19;1728415;82;21364;-54
2023/09/05 02:43:10;;;;;;;11.00;6.08;;;;;;;16.90;64.90;101077.13;1727269;82;21352;-54
2023/09/05 02:46:15;;;;;;;11.00;6.00;;;;;;;16.90;64.95;101076.26;1728180;82;21340;-56
2023/09/05 02:49:20;;;;;;;11.12;6.22;;;;;;;16.87;65.00;101074.73;1728052;82;21882;-54
2023/09/05 02:52:26;;;;;;;11.30;6.40;;;;;;;16.85;65.10;101076.86;1727666;82;21391;-54
2023/09/05 02:55:34;;;;;;;9.85;6.00;;;;;;;16.86;65.19;101075.80;1725533;82;21795;-54
2023/09/05 02:58:40;;;;;;;7.37;5.80;;;;;;;16.82;65.28;101077.78;1728501;82;21411;-54
2023/09/05 03:01:45;;;;;;;11.50;6.80;;;;;;;16.81;65.36;101078.84;1727206;82;21722;-53
2023/09/05 03:04:51;;;;;;;11.50;6.85;;;;;;;16.83;65.48;101083.63;1732630;82;21344;-53
2023/09/05 03:07:57;;;;;;;8.90;5.87;;;;;;;16.82;65.60;101078.65;1734150;82;21927;-54
2023/09/05 03:11:02;;;;;;;10.38;6.20;;;;;;;16.82;65.68;101079.16;1731399;82;21355;-55
2023/09/05 03:14:07;;;;;;;9.23;6.00;;;;;;;16.82;65.71;101085.56;1735054;82;21349;-54
2023/09/05 03:17:12;;;;;;;12.95;6.75;;;;;;;16.79;65.72;101086.48;1734226;82;21332;-54
2023/09/05 03:20:19;;;;;;;9.83;6.87;;;;;;;16.76;65.83;101078.58;1732115;82;21414;-54
2023/09/05 03:23:24;;;;;;;10.58;6.85;;;;;;;16.74;65.88;101089.84;1731106;82;21894;-54
2023/09/05 03:26:30;;;;;;;17.23;12.28;;;;;;;16.72;65.98;101093.33;1733508;81;21849;-54
2023/09/05 03:29:36;;;;;;;22.73;15.93;;;;;;;16.69;66.06;101092.34;1730006;82;21909;-53
2023/09/05 03:32:42;;;;;;;29.12;19.90;;;;;;;16.68;66.14;101093.92;1733587;81;21866;-53
2023/09/05 03:35:47;;;;;;;29.45;18.05;;;;;;;16.69;66.34;101080.42;1734430;82;21911;-55
2023/09/05 03:38:53;;;;;;;23.80;15.32;;;;;;;16.69;66.42;101092.86;1732086;82;21439;-56
2023/09/05 03:42:01;;;;;;;22.93;14.93;;;;;;;16.70;66.55;101087.68;1731938;82;21944;-56
2023/09/05 03:45:08;;;;;;;21.00;13.98;;;;;;;16.70;66.63;101092.66;1730196;82;21842;-54
2023/09/05 03:48:14;;;;;;;17.85;11.30;;;;;;;16.70;66.73;101092.66;1734146;82;21348;-53
2023/09/05 03:51:19;;;;;;;10.68;7.92;;;;;;;16.70;66.83;101098.73;1733279;82;21857;-54
2023/09/05 03:54:26;;;;;;;9.70;7.00;;;;;;;16.68;66.96;101100.29;1732367;82;21372;-53
2023/09/05 03:57:32;;;;;;;10.88;6.67;;;;;;;16.71;67.12;101101.82;1732962;82;21849;-54
2023/09/05 04:00:39;;;;;;;9.15;6.53;;;;;;;16.74;67.28;101106.44;1734480;82;21308;-53
2023/09/05 04:03:50;;;;;;;8.63;6.58;;;;;;;16.78;67.43;101109.63;1731403;80;21352;-55
2023/09/05 04:06:52;;;;;;;9.40;6.47;;;;;;;16.82;67.42;101118.75;1728771;82;21901;-56
2023/09/05 04:09:58;;;;;;;11.78;6.58;;;;;;;16.85;67.48;101119.73;1750660;81;21257;-56
2023/09/05 04:13:04;;;;;;;9.63;7.08;;;;;;;16.91;67.61;101115.30;1758181;81;21433;-55
2023/09/05 04:16:13;;;;;;;10.05;6.35;;;;;;;16.97;67.71;101113.98;1758412;81;21406;-55
2023/09/05 04:19:19;;;;;;;9.78;6.33;;;;;;;17.04;67.77;101129.25;1693837;84;21952;-55
2023/09/05 04:22:25;;;;;;;8.38;6.33;;;;;;;17.12;67.88;101136.03;1752263;82;21901;-53
2023/09/05 04:25:32;;;;;;;7.50;5.90;;;;;;;17.20;67.93;101139.52;1696392;84;21888;-55
2023/09/05 04:28:38;;;;;;;11.03;6.50;;;;;;;17.26;67.90;101144.25;1752835;81;21418;-55
2023/09/05 04:31:44;;;;;;;7.72;5.67;;;;;;;17.29;67.93;101142.45;1695836;84;21363;-54
2023/09/05 04:34:51;;;;;;;10.10;6.53;;;;;;;17.31;68.01;101140.88;1739634;82;21455;-54
2023/09/05 04:37:57;;;;;;;8.75;5.85;;;;;;;17.33;68.08;101144.30;1732678;81;21864;-54
2023/09/05 04:41:10;;;;;;;9.25;6.15;;;;;;;17.34;68.16;101137.70;1745421;79;21351;-54
2023/09/05 04:44:16;;;;;;;9.00;5.83;;;;;;;17.37;68.25;101144.21;1750497;81;21500;-53
2023/09/05 04:47:33;;;;;;;7.67;6.17;;;;;;;17.43;68.38;101147.55;1728138;82;21237;-53
2023/09/05 04:50:37;;;;;;;10.88;6.60;;;;;;;17.50;68.48;101152.66;1732032;81;21198;-52
2023/09/05 04:53:43;;;;;;;7.83;5.95;;;;;;;17.58;68.50;101145.58;1740869;82;21786;-53
2023/09/05 04:56:51;;;;;;;10.72;6.30;;;;;;;17.61;68.52;101154.86;1742632;81;21182;-53
2023/09/05 04:59:58;;;;;;;7.25;5.65;;;;;;;17.64;68.60;101148.92;1699651;82;21725;-52
2023/09/05 05:03:03;;;;;;;9.68;6.50;;;;;;;17.72;68.71;101145.98;1685720;82;21209;-49
2023/09/05 05:06:09;;;;;;;9.80;5.97;;;;;;;17.77;68.72;101140.70;1750035;81;21929;-51
2023/09/05 05:09:15;;;;;;;8.38;5.95;;;;;;;17.83;68.80;101146.80;1736911;80;21676;-49
2023/09/05 05:12:20;;;;;;;9.48;5.90;;;;;;;17.90;68.87;101139.40;1672509;83;21314;-51
2023/09/05 05:15:25;;;;;;;7.35;5.72;;;;;;;17.95;68.94;101144.32;1739093;80;21598;-51
2023/09/05 05:18:31;;;;;;;8.75;6.12;;;;;;;18.04;69.04;101149.48;1743506;81;21376;-50
2023/09/05 05:21:36;;;;;;;11.38;6.30;;;;;;;18.07;69.05;101142.14;1676212;83;21633;-50
2023/09/05 05:24:42;;;;;;;10.78;6.70;;;;;;;18.15;69.17;101141.97;1695673;84;22281;-51
2023/09/05 05:27:48;;;;;;;20.23;9.45;;;;;;;18.26;69.31;101137.73;1741217;82;21363;-52
2023/09/05 05:30:55;;;;;;;16.42;8.90;;;;;;;18.36;69.42;101140.43;1748759;82;21344;-56
2023/09/05 05:34:01;;;;;;;10.85;7.62;;;;;;;18.52;69.59;101153.13;1726973;81;21792;-54
2023/09/05 05:37:06;;;;;;;13.85;7.20;;;;;;;18.72;69.75;101145.70;1742461;80;21224;-55
2023/09/05 05:40:13;;;;;;;10.38;6.20;;;;;;;18.96;69.81;101145.11;1734837;80;21205;-55
2023/09/05 05:43:21;;;;;;;8.50;6.58;;;;;;;19.18;69.85;101146.62;1745786;81;21217;-54
2023/09/05 05:46:25;;;;;;;10.15;6.33;;;;;;;19.34;69.76;101151.23;1721134;81;21287;-53
2023/09/05 05:49:32;;;;;;;10.38;6.95;;;;;;;19.48;69.72;101147.92;1719824;83;21260;-55
2023/09/05 05:52:39;;;;;;;11.22;6.53;;;;;;;19.59;69.63;101150.05;1673757;82;21277;-51
2023/09/05 05:55:43;;;;;;;12.47;7.80;;;;;;;19.67;69.55;101155.91;1756747;80;21884;-51
2023/09/05 05:58:48;;;;;;;10.95;6.95;;;;;;;19.70;69.51;101159.11;1735998;80;21240;-53
2023/09/05 06:01:55;;;;;;;8.75;6.42;;;;;;;19.81;69.55;101157.58;1736402;81;21754;-52
2023/09/05 06:05:03;;;;;;;14.18;6.70;;;;;;;19.93;69.60;101151.70;1752188;81;21347;-50
2023/09/05 06:08:09;;;;;;;8.30;6.28;;;;;;;20.02;69.47;101151.77;1646469;87;21377;-51
2023/09/05 06:11:16;;;;;;;12.68;6.45;;;;;;;20.03;69.40;101155.72;1673236;84;21220;-51
2023/09/05 06:14:22;;;;;;;7.75;5.78;;;;;;;20.10;69.44;101158.48;1641136;87;21866;-52
2023/09/05 06:17:27;;;;;;;10.75;6.50;;;;;;;20.17;69.41;101160.75;1640190;87;21252;-50
2023/09/05 06:20:34;;;;;;;9.30;5.58;;;;;;;20.17;69.29;101167.70;1640841;87;21288;-53
2023/09/05 06:23:39;;;;;;;8.88;6.20;;;;;;;20.18;69.28;101166.61;1660446;85;21292;-53
2023/09/05 06:26:45;;;;;;;8.85;7.28;;;;;;;20.23;69.33;101164.03;1664030;85;21198;-53
2023/09/05 06:29:51;;;;;;;10.60;6.75;;;;;;;20.32;69.41;101162.70;1701328;84;21279;-52
2023/09/05 06:32:57;;;;;;;7.70;5.33;;;;;;;20.42;69.37;101156.15;1703801;81;21251;-50
2023/09/05 06:36:05;;;;;;;7.67;5.95;;;;;;;20.51;69.38;101163.16;1707313;81;21208;-53
2023/09/05 06:39:11;;;;;;;10.13;6.40;;;;;;;20.60;69.37;101159.03;1707545;82;21373;-54
2023/09/05 06:42:17;;;;;;;8.80;5.05;;;;;;;20.68;69.33;101153.20;1679704;82;21212;-52
2023/09/05 06:45:25;;;;;;;15.80;9.58;;;;;;;20.75;69.22;101159.08;1702405;82;21371;-51
2023/09/05 06:48:31;;;;;;;14.07;7.25;;;;;;;20.75;69.10;101156.30;1705746;83;21762;-51
2023/09/05 06:51:38;;;;;;;9.28;5.58;;;;;;;20.71;68.98;101155.02;1703124;82;21774;-53
2023/09/05 06:54:43;;;;;;;9.65;5.70;;;;;;;20.74;69.03;101160.66;1703565;82;21224;-53
2023/09/05 06:57:47;;;;;;;6.28;5.30;;;;;;;20.81;69.11;101169.84;1702792;83;21204;-51
2023/09/05 07:00:54;;;;;;;11.20;5.90;;;;;;;20.85;69.12;101164.16;1708324;82;21216;-53
2023/09/05 07:04:01;;;;;;;8.63;5.95;;;;;;;20.88;69.16;101166.48;1706311;82;21750;-52
2023/09/05 07:07:07;;;;;;;9.25;6.40;;;;;;;20.92;69.23;101166.34;1721673;81;21747;-53
2023/09/05 07:10:13;;;;;;;8.65;6.45;;;;;;;21.00;69.26;101169.42;1745029;81;21340;-52
2023/09/05 07:13:19;;;;;;;8.85;6.85;;;;;;;21.04;69.20;101175.70;1736750;80;21213;-53
2023/09/05 07:16:25;;;;;;;9.88;6.72;;;;;;;21.09;69.14;101177.84;1753445;80;21304;-53
2023/09/05 07:19:30;;;;;;;11.63;7.62;;;;;;;21.19;69.25;101172.08;1738639;81;21822;-52
2023/09/05 07:22:36;;;;;;;11.65;8.23;;;;;;;21.40;69.38;101173.63;1719794;83;21194;-52
2023/09/05 07:25:45;;;;;;;9.70;6.40;;;;;;;21.57;69.28;101165.00;1730424;81;21908;-52
2023/09/05 07:28:52;;;;;;;9.38;7.08;;;;;;;21.74;69.21;101175.90;1749805;82;21383;-50
2023/09/05 07:32:01;;;;;;;7.83;6.00;;;;;;;21.81;68.94;101176.17;1684288;83;21260;-51
2023/09/05 07:35:07;;;;;;;9.00;5.53;;;;;;;21.90;68.88;101182.28;1732412;79;21365;-52
2023/09/05 07:38:12;;;;;;;7.15;5.03;;;;;;;21.95;68.78;101183.31;1724783;81;21781;-51
2023/09/05 07:41:18;;;;;;;7.72;5.05;;;;;;;21.99;68.57;101176.73;1736639;81;21178;-53
2023/09/05 07:44:25;;;;;;;7.05;5.28;;;;;;;22.00;68.48;101173.72;1729971;80;21291;-51
2023/09/05 07:47:33;;;;;;;8.68;5.83;;;;;;;22.12;68.49;101177.43;1689607;83;21323;-52
2023/09/05 07:50:40;;;;;;;8.65;5.42;;;;;;;22.17;68.32;101177.59;1687204;83;21200;-53
2023/09/05 07:53:46;;;;;;;7.22;5.37;;;;;;;22.28;68.34;101183.49;1671275;83;21758;-50
2023/09/05 07:56:52;;;;;;;9.65;6.92;;;;;;;22.31;68.12;101177.45;1740319;80;21762;-53
2023/09/05 07:59:58;;;;;;;8.98;6.67;;;;;;;22.28;67.92;101174.56;1733968;82;21204;-53
2023/09/05 08:03:05;;;;;;;10.68;5.85;;;;;;;22.32;67.93;101180.53;1732592;82;21434;-52
2023/09/05 08:06:12;;;;;;;8.40;5.20;;;;;;;22.42;67.85;101182.24;1740487;81;21220;-52
2023/09/05 08:09:17;;;;;;;8.80;5.37;;;;;;;22.49;67.71;101177.41;1738825;81;21204;-52
2023/09/05 08:12:23;;;;;;;6.87;4.70;;;;;;;22.56;67.61;101186.59;1681101;84;21208;-51
2023/09/05 08:15:29;;;;;;;6.28;4.35;;;;;;;22.63;67.54;101188.20;1746730;81;21850;-50
2023/09/05 08:18:35;;;;;;;6.17;4.45;;;;;;;22.70;67.33;101175.03;1752841;81;21933;-51
2023/09/05 08:21:41;;;;;;;5.60;4.12;;;;;;;22.81;67.33;101174.77;1694347;84;21204;-52
2023/09/05 08:24:47;;;;;;;9.15;4.70;;;;;;;22.92;67.19;101179.54;1749186;80;21232;-52
2023/09/05 08:27:53;;;;;;;6.45;4.25;;;;;;;22.98;67.00;101170.20;1687519;83;21244;-52
2023/09/05 08:31:02;;;;;;;7.10;4.22;;;;;;;23.01;66.77;101167.80;1722146;83;21208;-50
2023/09/05 08:34:10;;;;;;;8.25;4.05;;;;;;;22.99;66.67;101164.95;1709090;83;21328;-51
2023/09/05 08:37:16;;;;;;;7.42;4.30;;;;;;;23.01;66.49;101165.53;1744069;81;21419;-52
2023/09/05 08:40:24;;;;;;;4.85;4.22;;;;;;;23.04;66.47;101170.67;1694245;83;21208;-52
2023/09/05 08:43:30;;;;;;;6.00;3.98;;;;;;;23.07;66.46;101176.61;1735296;82;21212;-52
2023/09/05 08:46:37;;;;;;;8.48;4.28;;;;;;;23.11;66.34;101168.61;1730818;81;21206;-53
2023/09/05 08:49:45;;;;;;;7.33;3.83;;;;;;;23.10;66.18;101166.92;1745498;81;21414;-52
2023/09/05 08:52:52;;;;;;;5.55;4.17;;;;;;;23.14;66.20;101163.94;1740431;80;21213;-54
2023/09/05 08:56:00;;;;;;;7.55;4.20;;;;;;;23.20;66.19;101165.23;1724325;82;21220;-53
2023/09/05 08:59:08;;;;;;;5.58;4.50;;;;;;;23.21;66.06;101166.10;1728786;82;21418;-52
2023/09/05 09:02:14;;;;;;;7.53;5.72;;;;;;;23.24;66.08;101151.64;1745178;81;21332;-51
2023/09/05 09:05:21;;;;;;;6.67;4.65;;;;;;;23.20;65.92;101149.88;1664014;85;21316;-49
2023/09/05 09:08:27;;;;;;;5.62;4.35;;;;;;;23.23;65.91;101149.95;1742899;81;21586;-51
2023/09/05 09:11:34;;;;;;;7.53;4.58;;;;;;;23.19;65.79;101148.72;1673422;85;21208;-50
2023/09/05 09:14:40;;;;;;;9.85;7.33;;;;;;;23.28;65.90;101141.71;1673336;85;21243;-50
2023/09/05 09:17:54;;;;;;;9.68;6.10;;;;;;;23.28;65.65;101143.11;1672785;84;21327;-51
2023/09/05 09:21:00;;;;;;;9.98;5.62;;;;;;;23.29;65.75;101143.44;1680809;84;21224;-53
2023/09/05 09:24:11;;;;;;;7.80;5.10;;;;;;;23.40;65.79;101144.00;1646016;86;21275;-52
2023/09/05 09:27:22;;;;;;;9.85;4.67;;;;;;;23.44;65.65;101145.20;1694016;84;21982;-52
2023/09/05 09:30:30;;;;;;;5.28;4.45;;;;;;;23.45;65.55;101156.70;1672740;84;21217;-53
2023/09/05 09:33:38;;;;;;;6.85;4.87;;;;;;;23.44;65.47;101154.98;1646346;86;21239;-52
2023/09/05 09:36:43;;;;;;;5.67;4.30;;;;;;;23.46;65.34;101147.22;1667347;85;21742;-52
2023/09/05 09:39:50;;;;;;;7.70;4.42;;;;;;;23.54;65.33;101148.26;1646510;86;21571;-51
2023/09/05 09:42:57;;;;;;;7.28;4.62;;;;;;;23.71;65.34;101154.83;1646550;87;21385;-51
2023/09/05 09:46:08;;;;;;;8.80;4.25;;;;;;;23.90;65.36;101159.20;1646648;87;21749;-49
2023/09/05 09:49:15;;;;;;;5.47;4.08;;;;;;;24.13;65.25;101166.76;1646270;87;21740;-53
2023/09/05 09:52:23;;;;;;;6.05;3.98;;;;;;;24.17;64.91;101160.42;1646486;87;21185;-50
2023/09/05 09:55:30;;;;;;;5.70;4.20;;;;;;;24.26;64.73;101165.93;1664429;84;21219;-50
2023/09/05 09:58:40;;;;;;;6.58;4.47;;;;;;;24.21;64.33;101160.25;1687950;83;21225;-52
2023/09/05 10:01:47;;;;;;;9.50;4.42;;;;;;;24.28;64.31;101161.48;1670622;84;21202;-52
2023/09/05 10:04:53;;;;;;;6.10;4.10;;;;;;;24.39;64.17;101157.80;1672625;85;21228;-52
2023/09/05 10:08:00;;;;;;;6.55;3.95;;;;;;;24.37;63.81;101156.66;1652487;85;21382;-53
2023/09/05 10:11:06;;;;;;;5.40;4.65;;;;;;;24.33;63.64;101157.41;1672154;84;21238;-53
2023/09/05 10:14:13;;;;;;;8.15;4.12;;;;;;;24.38;63.62;101161.18;1681616;83;22009;-52
2023/09/05 10:17:20;;;;;;;7.00;4.40;;;;;;;24.45;63.55;101154.88;1674806;84;21201;-53
2023/09/05 10:20:25;;;;;;;7.17;4.62;;;;;;;24.45;63.30;101148.44;1694851;84;21210;-51
2023/09/05 10:23:30;;;;;;;5.95;4.30;;;;;;;24.43;63.21;101147.30;1683804;84;21218;-53
2023/09/05 10:26:35;;;;;;;6.25;4.17;;;;;;;24.40;63.07;101148.33;1695859;82;21212;-53
2023/09/05 10:29:54;;;;;;;5.55;3.98;;;;;;;24.36;62.92;101142.37;1689737;82;21269;-53
2023/09/05 10:33:00;;;;;;;7.65;4.42;;;;;;;24.31;62.89;101136.66;1739397;81;21241;-55
2023/09/05 10:36:06;;;;;;;6.97;4.58;;;;;;;24.34;62.98;101136.73;1744155;81;21731;-54
2023/09/05 10:39:32;;;;;;;6.65;4.80;;;;;;;24.48;63.08;101134.77;1733006;80;21205;-53
2023/09/05 10:42:38;;;;;;;8.53;4.85;;;;;;;24.61;62.92;101130.29;1751663;80;21199;-55
2023/09/05 10:45:46;;;;;;;9.63;5.22;;;;;;;24.71;62.84;101119.33;1741926;80;22057;-54
2023/09/05 10:48:52;;;;;;;7.97;4.90;;;;;;;24.80;62.63;101129.59;1746299;81;22024;-55
2023/09/05 10:52:27;;;;;;;6.62;4.75;;;;;;;24.81;62.42;101127.94;1685429;82;21200;-55
2023/09/05 10:55:46;;;;;;;10.28;4.58;;;;;;;24.85;62.29;101127.72;1692006;83;21205;-54
2023/09/05 10:58:54;;;;;;;5.25;4.05;;;;;;;24.99;62.26;101122.64;1675611;82;21580;-54
2023/09/05 11:02:05;;;;;;;5.75;3.95;;;;;;;25.14;62.15;101136.09;1672179;83;21746;-54
2023/09/05 11:05:13;;;;;;;8.93;4.05;;;;;;;25.16;61.89;101129.69;1681426;83;21257;-53
2023/09/05 11:08:29;;;;;;;6.58;4.30;;;;;;;25.20;61.79;101128.92;1682686;82;21271;-54
2023/09/05 11:11:40;;;;;;;8.60;4.83;;;;;;;25.23;61.68;101127.01;1742500;80;21777;-54
2023/09/05 11:14:47;;;;;;;4.80;4.10;;;;;;;25.27;61.46;101136.62;1739465;81;21204;-54
2023/09/05 11:18:09;;;;;;;5.85;4.22;;;;;;;25.32;61.40;101124.64;1729342;81;21578;-53
2023/09/05 11:21:28;;;;;;;6.22;4.30;;;;;;;25.38;61.22;101128.72;1685256;82;21216;-54
2023/09/05 11:24:46;;;;;;;9.38;4.72;;;;;;;25.37;60.86;101128.41;1683373;82;21282;-53
2023/09/05 11:27:47;;;;;;;5.20;4.08;;;;;;;25.42;60.76;101113.64;1742146;80;21459;-52
2023/09/05 11:30:57;;;;;;;8.88;5.33;;;;;;;25.63;60.78;101119.86;1727586;82;21475;-52
2023/09/05 11:34:03;;;;;;;7.10;4.20;;;;;;;25.91;60.72;101119.75;1733124;80;21245;-54
2023/09/05 11:37:09;;;;;;;6.42;4.90;;;;;;;26.20;60.43;101119.89;1683929;83;21219;-53
2023/09/05 11:40:25;;;;;;;7.10;4.35;;;;;;;26.32;59.97;101115.02;1736511;81;21209;-55
2023/09/05 11:43:29;;;;;;;7.97;4.08;;;;;;;26.35;59.49;101120.11;1685568;83;21292;-53
2023/09/05 11:46:35;;;;;;;6.45;4.33;;;;;;;26.32;59.06;101120.63;1708728;82;21189;-54
2023/09/05 11:49:43;;;;;;;9.05;4.17;;;;;;;26.23;58.66;101111.80;1736359;81;21195;-54
2023/09/05 11:52:51;;;;;;;6.95;5.05;;;;;;;26.19;58.58;101103.62;1731776;81;21237;-53
2023/09/05 11:55:59;;;;;;;9.88;4.95;;;;;;;26.30;58.64;101111.61;1720482;82;21583;-53
2023/09/05 11:59:07;;;;;;;6.92;4.35;;;;;;;26.37;58.37;101094.84;1726610;81;21726;-53
2023/09/05 12:02:18;;;;;;;7.12;4.55;;;;;;;26.41;58.07;101107.82;1725374;81;21551;-53
2023/09/05 12:05:25;;;;;;;8.80;4.90;;;;;;;26.42;57.89;101096.87;1739042;80;21249;-54
2023/09/05 12:08:32;;;;;;;5.65;4.30;;;;;;;26.45;57.67;101088.77;1725090;80;21268;-54
2023/09/05 12:11:37;;;;;;;8.23;4.40;;;;;;;26.55;57.59;101092.25;1741385;81;21703;-54
2023/09/05 12:15:07;;;;;;;6.62;4.37;;;;;;;26.59;57.34;101096.25;1735941;81;21842;-53
2023/09/05 12:18:13;;;;;;;6.83;4.17;;;;;;;26.59;57.00;101085.56;1731484;81;21224;-53
2023/09/05 12:21:22;;;;;;;7.42;4.28;;;;;;;26.44;56.62;101089.89;1718699;80;21197;-54
2023/09/05 12:24:31;;;;;;;9.90;4.70;;;;;;;26.53;56.65;101086.62;1720024;80;21244;-53
2023/09/05 12:27:39;;;;;;;6.22;4.15;;;;;;;26.60;56.47;101088.11;1731694;81;21722;-53
2023/09/05 12:30:44;;;;;;;6.28;4.22;;;;;;;26.63;56.15;101091.78;1729204;79;21620;-54
2023/09/05 12:33:50;;;;;;;6.15;4.30;;;;;;;26.48;55.80;101081.22;1754910;79;21204;-54
2023/09/05 12:36:55;;;;;;;9.88;3.95;;;;;;;26.54;55.84;101084.95;1733584;81;21256;-51
2023/09/05 12:40:04;;;;;;;9.03;4.60;;;;;;;26.64;55.73;101072.44;1720769;81;21244;-51
2023/09/05 12:43:12;;;;;;;7.15;3.65;;;;;;;26.61;55.41;101082.77;1726862;81;21247;-53
2023/09/05 12:46:16;;;;;;;4.90;4.15;;;;;;;26.48;55.07;101090.23;1743851;79;21244;-54
2023/09/05 12:49:22;;;;;;;8.25;3.87;;;;;;;26.38;54.86;101080.27;1753315;79;22172;-53
2023/09/05 12:52:29;;;;;;;9.33;4.30;;;;;;;26.33;54.75;101083.86;1723518;81;21252;-53
2023/09/05 12:55:37;;;;;;;6.12;4.08;;;;;;;26.25;54.65;101083.47;1739351;79;21201;-52
2023/09/05 12:58:44;;;;;;;5.22;4.08;;;;;;;26.19;54.57;101092.94;1743434;79;21236;-54
2023/09/05 13:01:52;;;;;;;6.33;4.05;;;;;;;26.21;54.56;101084.53;1745485;80;21342;-52
2023/09/05 13:05:01;;;;;;;7.25;4.72;;;;;;;26.19;54.45;101076.95;1739560;81;21174;-51
2023/09/05 13:08:06;;;;;;;5.22;4.05;;;;;;;26.21;54.38;101083.70;1730052;82;21220;-52
2023/09/05 13:11:13;;;;;;;7.83;3.95;;;;;;;26.09;54.15;101088.58;1745806;79;21612;-53
2023/09/05 13:14:22;;;;;;;6.17;4.22;;;;;;;26.01;54.06;101082.02;1733320;79;21194;-51
2023/09/05 13:17:28;;;;;;;7.15;4.40;;;;;;;26.01;54.09;101081.47;1673690;83;21599;-52
2023/09/05 13:20:34;;;;;;;9.35;4.00;;;;;;;26.08;54.00;101079.88;1689669;83;21271;-54
2023/09/05 13:23:39;;;;;;;7.30;3.95;;;;;;;26.12;53.94;101073.48;1644885;85;21772;-50
2023/09/05 13:26:46;;;;;;;6.95;4.22;;;;;;;26.11;53.85;101076.00;1679287;84;21560;-51
2023/09/05 13:29:56;;;;;;;7.05;4.35;;;;;;;25.98;53.62;101076.89;1672877;84;21295;-52
2023/09/05 13:33:02;;;;;;;6.47;4.62;;;;;;;25.90;53.60;101076.80;1699429;83;21202;-52
2023/09/05 13:36:08;;;;;;;5.80;4.55;;;;;;;25.87;53.54;101076.45;1671044;84;22176;-53
2023/09/05 13:39:13;;;;;;;9.98;5.10;;;;;;;25.87;53.52;101071.70;1753228;80;21189;-52
2023/09/05 13:42:17;;;;;;;5.80;3.77;;;;;;;25.86;53.44;101070.56;1748445;80;21167;-50
2023/09/05 13:45:25;;;;;;;6.72;3.80;;;;;;;25.78;53.32;101066.22;1743282;80;21629;-50
2023/09/05 13:48:31;;;;;;;7.28;3.85;;;;;;;25.77;53.36;101065.94;1758235;80;21256;-51
2023/09/05 13:51:37;;;;;;;6.08;3.60;;;;;;;25.80;53.35;101064.59;1672496;85;21292;-51
2023/09/05 13:54:43;;;;;;;5.10;3.50;;;;;;;25.82;53.31;101059.55;1726340;82;21224;-53
2023/09/05 13:57:49;;;;;;;7.20;3.72;;;;;;;25.85;53.30;101064.64;1737598;79;21303;-52
2023/09/05 14:00:54;;;;;;;5.85;3.58;;;;;;;25.83;53.20;101058.46;1741442;80;21208;-52
2023/09/05 14:03:59;;;;;;;4.85;3.22;;;;;;;25.83;53.17;101059.86;1743947;80;21201;-53
2023/09/05 14:07:05;;;;;;;4.90;3.25;;;;;;;25.82;53.18;101053.94;1743705;80;21190;-53
2023/09/05 14:10:10;;;;;;;7.30;3.83;;;;;;;25.81;53.08;101055.91;1749193;81;21221;-53
2023/09/05 14:13:16;;;;;;;7.20;3.80;;;;;;;25.80;53.04;101055.60;1673965;84;21778;-54
2023/09/05 14:16:22;;;;;;;6.62;3.77;;;;;;;25.80;53.00;101060.39;1675482;84;21294;-54
2023/09/05 14:19:28;;;;;;;5.03;3.85;;;;;;;25.82;52.94;101055.34;1753969;80;21750;-55
2023/09/05 14:22:33;;;;;;;5.95;3.80;;;;;;;25.83;52.82;101062.67;1668451;82;21201;-55
2023/09/05 14:25:39;;;;;;;7.83;3.90;;;;;;;25.76;52.69;101057.78;1746807;80;21201;-54
2023/09/05 14:28:45;;;;;;;7.45;3.47;;;;;;;25.65;52.61;101067.16;1664387;84;21221;-55